createdAt,value
2022-09-17T00:00:00.644Z,29.05
2022-09-17T00:02:57.876Z,29.11
2022-09-17T00:05:49.161Z,29.15
2022-09-17T00:08:41.481Z,29.23
2022-09-17T00:11:34.911Z,29.26
2022-09-17T00:14:25.287Z,29.32
2022-09-17T00:17:15.910Z,29.35
2022-09-17T00:20:07.372Z,29.40
2022-09-17T00:22:57.366Z,29.39
2022-09-17T00:25:48.687Z,29.41
2022-09-17T00:28:38.548Z,29.44
2022-09-17T00:31:30.419Z,29.43
2022-09-17T00:34:20.994Z,29.46
2022-09-17T00:37:11.334Z,29.49
2022-09-17T00:40:01.555Z,29.52
2022-09-17T00:42:52.299Z,29.56
2022-09-17T00:45:42.503Z,29.56
2022-09-17T00:48:33.124Z,29.58
2022-09-17T00:51:30.076Z,29.57
2022-09-17T00:54:20.483Z,29.58
2022-09-17T00:57:13.413Z,29.62
2022-09-17T01:00:09.499Z,29.66
2022-09-17T01:03:00.326Z,29.60
2022-09-17T01:06:25.349Z,29.71
2022-09-17T01:09:28.536Z,29.71
2022-09-17T01:12:34.315Z,29.74
2022-09-17T01:15:43.022Z,29.87
2022-09-17T01:19:06.138Z,29.95
2022-09-17T01:22:10.993Z,30.04
2022-09-17T01:25:07.971Z,30.06
2022-09-17T01:28:17.137Z,30.16
2022-09-17T01:31:12.066Z,30.19
2022-09-17T01:34:08.154Z,30.27
2022-09-17T01:37:02.001Z,30.31
2022-09-17T01:40:26.693Z,30.44
2022-09-17T01:43:32.437Z,30.49
2022-09-17T01:46:33.976Z,30.44
2022-09-17T01:49:31.049Z,30.49
2022-09-17T01:52:21.823Z,30.53
2022-09-17T01:55:16.673Z,30.52
2022-09-17T01:58:24.648Z,30.58
2022-09-17T02:01:18.294Z,30.62
2022-09-17T02:04:25.798Z,30.61
2022-09-17T02:07:22.722Z,30.61
2022-09-17T02:10:16.573Z,30.62
2022-09-17T02:13:15.650Z,30.63
2022-09-17T02:16:19.983Z,30.70
2022-09-17T02:19:44.476Z,30.79
2022-09-17T02:22:44.181Z,30.73
2022-09-17T02:25:41.311Z,30.79
2022-09-17T02:28:35.039Z,30.78
2022-09-17T02:31:26.444Z,30.84
2022-09-17T02:34:19.013Z,30.93
2022-09-17T02:37:14.732Z,30.99
2022-09-17T02:40:05.676Z,30.96
2022-09-17T02:43:12.136Z,30.96
2022-09-17T02:46:23.790Z,30.94
2022-09-17T02:49:23.269Z,30.90
2022-09-17T02:52:26.042Z,30.87
2022-09-17T02:55:26.973Z,30.86
2022-09-17T02:58:49.546Z,30.87
2022-09-17T03:01:51.233Z,30.87
2022-09-17T03:04:42.668Z,30.84
2022-09-17T03:07:34.235Z,30.86
2022-09-17T03:10:25.364Z,30.90
2022-09-17T03:13:19.138Z,30.92
2022-09-17T03:16:10.396Z,30.98
2022-09-17T03:19:01.210Z,30.97
2022-09-17T03:21:51.473Z,31.02
2022-09-17T03:24:41.567Z,31.10
2022-09-17T03:27:32.032Z,31.16
2022-09-17T03:30:23.280Z,31.26
2022-09-17T03:33:16.705Z,31.28
2022-09-17T03:36:07.738Z,31.43
2022-09-17T03:39:00.522Z,31.49
2022-09-17T03:41:52.868Z,31.54
2022-09-17T03:44:49.641Z,31.63
2022-09-17T03:47:40.395Z,31.72
2022-09-17T03:50:31.389Z,31.79
2022-09-17T03:53:23.386Z,31.86
2022-09-17T03:56:16.162Z,31.93
2022-09-17T03:59:07.013Z,32.01
2022-09-17T04:02:00.464Z,32.11
2022-09-17T04:04:50.560Z,32.20
2022-09-17T04:07:43.196Z,32.23
2022-09-17T04:10:36.790Z,32.21
2022-09-17T04:13:29.650Z,32.18
2022-09-17T04:16:21.814Z,32.15
2022-09-17T04:19:12.465Z,32.17
2022-09-17T04:22:02.890Z,32.13
2022-09-17T04:24:52.744Z,32.27
2022-09-17T04:27:43.394Z,32.40
2022-09-17T04:30:35.563Z,32.44
2022-09-17T04:33:26.397Z,32.35
2022-09-17T04:36:17.450Z,32.34
2022-09-17T04:39:09.824Z,32.35
2022-09-17T04:42:00.465Z,32.42
2022-09-17T04:44:55.057Z,32.38
2022-09-17T04:47:45.257Z,32.34
2022-09-17T04:50:35.787Z,32.38
2022-09-17T04:53:26.428Z,32.45
2022-09-17T04:56:18.307Z,32.52
2022-09-17T04:59:08.511Z,32.58
2022-09-17T05:01:59.076Z,32.64
2022-09-17T05:04:51.627Z,32.68
2022-09-17T05:07:42.226Z,32.75
2022-09-17T05:10:34.728Z,32.80
2022-09-17T05:13:25.159Z,32.81
2022-09-17T05:16:16.039Z,32.83
2022-09-17T05:19:06.353Z,32.87
2022-09-17T05:21:57.464Z,32.92
2022-09-17T05:24:47.840Z,32.97
2022-09-17T05:28:34.386Z,33.06
2022-09-17T05:31:45.048Z,33.15
2022-09-17T05:34:37.630Z,33.15
2022-09-17T05:37:30.613Z,33.22
2022-09-17T05:40:22.623Z,33.28
2022-09-17T05:43:17.292Z,33.33
2022-09-17T05:46:11.093Z,33.41
2022-09-17T05:49:01.658Z,33.44
2022-09-17T05:51:54.521Z,33.51
2022-09-17T05:54:48.641Z,33.59
2022-09-17T05:57:38.420Z,33.66
2022-09-17T06:00:29.228Z,33.63
2022-09-17T06:03:21.027Z,33.71
2022-09-17T06:06:13.045Z,33.79
2022-09-17T06:09:03.801Z,33.84
2022-09-17T06:11:58.848Z,33.86
2022-09-17T06:14:52.481Z,33.91
2022-09-17T06:17:44.927Z,33.86
2022-09-17T06:20:35.959Z,33.92
2022-09-17T06:23:26.297Z,33.89
2022-09-17T06:26:18.540Z,33.92
2022-09-17T06:29:12.099Z,33.89
2022-09-17T06:32:04.259Z,33.78
2022-09-17T06:34:55.587Z,33.69
2022-09-17T06:37:47.300Z,33.57
2022-09-17T06:40:38.393Z,33.47
2022-09-17T06:43:29.744Z,33.39
2022-09-17T06:46:20.425Z,33.29
2022-09-17T06:49:11.649Z,33.22
2022-09-17T06:52:02.259Z,33.17
2022-09-17T06:54:52.775Z,33.13
2022-09-17T06:57:43.212Z,33.05
2022-09-17T07:00:36.743Z,33.01
2022-09-17T07:03:26.843Z,32.94
2022-09-17T07:06:17.711Z,32.91
2022-09-17T07:09:10.985Z,32.90
2022-09-17T07:12:03.589Z,32.91
2022-09-17T07:14:55.099Z,32.89
2022-09-17T07:17:46.007Z,32.80
2022-09-17T07:20:37.295Z,32.83
2022-09-17T07:23:31.941Z,32.83
2022-09-17T07:26:24.170Z,32.81
2022-09-17T07:29:15.957Z,32.80
2022-09-17T07:32:07.492Z,32.75
2022-09-17T07:35:01.402Z,32.80
2022-09-17T07:37:55.012Z,32.77
2022-09-17T07:40:45.797Z,32.76
2022-09-17T07:43:40.708Z,32.75
2022-09-17T07:46:31.700Z,32.74
2022-09-17T07:49:22.325Z,32.69
2022-09-17T07:52:13.162Z,32.66
2022-09-17T07:55:03.009Z,32.59
2022-09-17T07:57:55.172Z,32.57
2022-09-17T08:00:51.432Z,32.51
2022-09-17T08:03:42.626Z,32.44
2022-09-17T08:06:40.971Z,32.38
2022-09-17T08:09:31.610Z,32.42
2022-09-17T08:12:24.279Z,32.36
2022-09-17T08:15:14.850Z,32.32
2022-09-17T08:18:04.923Z,32.30
2022-09-17T08:20:59.934Z,32.24
2022-09-17T08:23:54.036Z,32.19
2022-09-17T08:26:45.457Z,32.20
2022-09-17T08:29:36.518Z,32.16
2022-09-17T08:32:33.134Z,32.17
2022-09-17T08:35:23.705Z,32.16
2022-09-17T08:38:14.792Z,32.17
2022-09-17T08:41:14.280Z,32.16
2022-09-17T08:44:12.708Z,32.11
2022-09-17T08:47:39.491Z,32.11
2022-09-17T08:50:37.963Z,32.07
2022-09-17T08:53:39.450Z,32.04
2022-09-17T08:56:30.951Z,31.95
2022-09-17T08:59:43.530Z,31.99
2022-09-17T09:02:48.782Z,31.99
2022-09-17T09:05:55.747Z,31.91
2022-09-17T09:09:03.301Z,31.91
2022-09-17T09:12:07.333Z,31.90
2022-09-17T09:15:07.247Z,31.82
2022-09-17T09:17:58.487Z,31.86
2022-09-17T09:20:57.431Z,31.85
2022-09-17T09:24:02.316Z,31.83
2022-09-17T09:27:35.850Z,31.83
2022-09-17T09:30:26.792Z,31.73
2022-09-17T09:33:33.672Z,31.72
2022-09-17T09:36:25.146Z,31.70
2022-09-17T09:39:26.715Z,31.69
2022-09-17T09:42:37.788Z,31.70
2022-09-17T09:45:58.928Z,31.64
2022-09-17T09:49:13.700Z,31.58
2022-09-17T09:52:37.945Z,31.61
2022-09-17T09:55:45.027Z,31.51
2022-09-17T09:58:43.401Z,31.61
2022-09-17T10:01:35.594Z,31.59
2022-09-17T10:04:32.657Z,31.55
2022-09-17T10:07:23.619Z,31.46
2022-09-17T10:10:19.913Z,31.46
2022-09-17T10:13:16.583Z,31.47
2022-09-17T10:16:23.083Z,31.47
2022-09-17T10:19:28.570Z,31.44
2022-09-17T10:22:28.923Z,31.41
2022-09-17T10:25:23.247Z,31.38
2022-09-17T10:28:40.941Z,31.36
2022-09-17T10:32:02.964Z,31.32
2022-09-17T10:35:07.950Z,31.28
2022-09-17T10:37:59.318Z,31.17
2022-09-17T10:40:52.317Z,31.06
2022-09-17T10:43:43.467Z,30.98
2022-09-17T10:46:37.123Z,30.86
2022-09-17T10:49:50.285Z,30.84
2022-09-17T10:52:44.007Z,30.75
2022-09-17T10:55:36.316Z,30.68
2022-09-17T10:58:41.722Z,30.68
2022-09-17T11:01:44.204Z,30.67
2022-09-17T11:04:53.430Z,30.62
2022-09-17T11:07:57.102Z,30.56
2022-09-17T11:11:13.353Z,30.56
2022-09-17T11:14:06.708Z,30.53
2022-09-17T11:17:20.255Z,30.55
2022-09-17T11:20:33.199Z,30.50
2022-09-17T11:23:41.728Z,30.47
2022-09-17T11:27:09.408Z,30.47
2022-09-17T11:30:21.719Z,30.43
2022-09-17T11:33:22.138Z,30.42
2022-09-17T11:36:26.202Z,30.47
2022-09-17T11:39:25.694Z,30.52
2022-09-17T11:42:31.169Z,30.45
2022-09-17T11:45:32.579Z,30.47
2022-09-17T11:48:26.503Z,30.43
2022-09-17T11:51:35.556Z,30.49
2022-09-17T11:54:39.111Z,30.45
2022-09-17T11:57:37.689Z,30.42
2022-09-17T12:00:33.863Z,30.45
2022-09-17T12:03:33.011Z,30.46
2022-09-17T12:06:41.906Z,30.51
2022-09-17T12:09:36.964Z,30.50
2022-09-17T12:12:50.126Z,30.47
2022-09-17T12:15:44.847Z,30.45
2022-09-17T12:19:11.487Z,30.46
2022-09-17T12:22:17.056Z,30.45
2022-09-17T12:25:13.570Z,30.43
2022-09-17T12:28:18.514Z,30.42
2022-09-17T12:31:28.719Z,30.43
2022-09-17T12:34:59.050Z,30.42
2022-09-17T12:38:04.558Z,30.39
2022-09-17T12:41:18.782Z,30.40
2022-09-17T12:44:09.787Z,30.39
2022-09-17T12:47:43.815Z,30.42
2022-09-17T12:50:52.590Z,30.39
2022-09-17T12:53:58.658Z,30.34
2022-09-17T12:57:17.897Z,30.33
2022-09-17T13:00:14.769Z,30.32
2022-09-17T13:03:15.897Z,30.33
2022-09-17T13:06:21.351Z,30.33
2022-09-17T13:09:38.665Z,30.25
2022-09-17T13:12:48.935Z,30.29
2022-09-17T13:16:02.481Z,30.31
2022-09-17T13:19:33.287Z,30.33
2022-09-17T13:22:28.946Z,30.29
2022-09-17T13:25:22.617Z,30.33
2022-09-17T13:28:14.338Z,30.35
2022-09-17T13:31:09.455Z,30.34
2022-09-17T13:34:04.849Z,30.30
2022-09-17T13:37:00.740Z,30.34
2022-09-17T13:39:56.467Z,30.33
2022-09-17T13:42:54.934Z,30.36
2022-09-17T13:46:06.722Z,30.41
2022-09-17T13:49:11.657Z,30.50
2022-09-17T13:52:11.543Z,30.50
2022-09-17T13:55:02.772Z,30.56
2022-09-17T13:57:55.902Z,30.57
2022-09-17T14:01:06.261Z,30.52
2022-09-17T14:04:00.166Z,30.44
2022-09-17T14:07:00.958Z,30.40
2022-09-17T14:10:07.675Z,30.26
2022-09-17T14:13:01.127Z,30.25
2022-09-17T14:15:59.029Z,30.26
2022-09-17T14:19:12.281Z,30.25
2022-09-17T14:22:06.782Z,30.13
2022-09-17T14:25:16.395Z,30.09
2022-09-17T14:28:37.733Z,30.05
2022-09-17T14:31:44.356Z,30.04
2022-09-17T14:34:36.039Z,30.03
2022-09-17T14:37:30.521Z,30.02
2022-09-17T14:40:22.505Z,29.98
2022-09-17T14:43:34.751Z,30.04
2022-09-17T14:46:32.281Z,30.02
2022-09-17T14:49:31.863Z,30.00
2022-09-17T14:52:35.977Z,29.98
2022-09-17T14:55:31.910Z,29.95
2022-09-17T14:58:40.152Z,29.99
2022-09-17T15:01:32.718Z,29.99
2022-09-17T15:04:24.804Z,29.99
2022-09-17T15:07:16.486Z,29.97
2022-09-17T15:10:25.043Z,29.96
2022-09-17T15:13:22.584Z,29.97
2022-09-17T15:16:30.995Z,30.00
2022-09-17T15:22:42.196Z,29.88
2022-09-17T15:25:35.122Z,29.88
2022-09-17T15:28:43.401Z,29.91
2022-09-17T15:31:38.941Z,29.86
2022-09-17T15:34:32.802Z,29.87
2022-09-17T15:37:29.719Z,29.85
2022-09-17T15:40:35.595Z,29.86
2022-09-17T15:43:32.005Z,29.81
2022-09-17T15:46:31.507Z,29.78
2022-09-17T15:49:43.915Z,29.82
2022-09-17T15:52:39.192Z,29.74
2022-09-17T15:56:03.756Z,29.73
2022-09-17T15:58:57.626Z,29.69
2022-09-17T16:01:49.141Z,29.70
2022-09-17T16:04:40.489Z,29.65
2022-09-17T16:07:32.293Z,29.63
2022-09-17T16:10:22.850Z,29.59
2022-09-17T16:13:14.565Z,29.61
2022-09-17T16:16:04.681Z,29.64
2022-09-17T16:18:55.625Z,29.60
2022-09-17T16:21:47.301Z,29.56
2022-09-17T16:24:38.434Z,29.43
2022-09-17T16:27:36.161Z,29.43
2022-09-17T16:30:29.932Z,29.28
2022-09-17T16:33:22.468Z,29.25
2022-09-17T16:36:12.789Z,29.27
2022-09-17T16:39:03.021Z,29.24
2022-09-17T16:41:54.400Z,29.28
2022-09-17T16:44:48.049Z,29.25
2022-09-17T16:48:24.768Z,29.31
2022-09-17T16:51:16.156Z,29.21
2022-09-17T16:54:07.066Z,29.20
2022-09-17T16:56:58.359Z,29.17
2022-09-17T16:59:50.683Z,29.26
2022-09-17T17:02:41.347Z,29.26
2022-09-17T17:05:36.929Z,29.20
2022-09-17T17:08:28.241Z,29.13
2022-09-17T17:11:20.150Z,29.12
2022-09-17T17:14:14.621Z,29.18
2022-09-17T17:17:05.099Z,29.12
2022-09-17T17:19:56.081Z,29.15
2022-09-17T17:22:48.535Z,29.17
2022-09-17T17:25:38.389Z,29.24
2022-09-17T17:28:28.603Z,29.21
2022-09-17T17:31:18.666Z,29.23
2022-09-17T17:34:10.432Z,29.22
2022-09-17T17:37:00.810Z,29.16
2022-09-17T17:39:50.896Z,29.19
2022-09-17T17:42:47.284Z,29.20
2022-09-17T17:45:41.118Z,29.13
2022-09-17T17:48:32.308Z,29.12
2022-09-17T17:51:25.282Z,29.12
2022-09-17T17:54:17.921Z,29.13
2022-09-17T17:57:09.065Z,29.11
2022-09-17T17:59:59.279Z,29.10
2022-09-17T18:02:49.117Z,29.05
2022-09-17T18:05:44.211Z,29.07
2022-09-17T18:08:34.811Z,29.03
2022-09-17T18:11:25.918Z,29.07
2022-09-17T18:14:16.425Z,29.07
2022-09-17T18:17:09.585Z,29.10
2022-09-17T18:20:01.270Z,29.00
2022-09-17T18:22:51.300Z,28.97
2022-09-17T18:25:42.463Z,28.97
2022-09-17T18:28:36.246Z,28.93
2022-09-17T18:31:34.586Z,29.02
2022-09-17T18:34:24.712Z,29.04
2022-09-17T18:37:15.233Z,29.09
2022-09-17T18:40:07.087Z,29.05
2022-09-17T18:42:59.400Z,28.98
2022-09-17T18:45:57.362Z,28.96
2022-09-17T18:48:47.967Z,28.93
2022-09-17T18:51:39.514Z,28.93
2022-09-17T18:54:29.555Z,28.96
2022-09-17T18:57:21.490Z,28.95
2022-09-17T19:00:13.090Z,28.92
2022-09-17T19:03:04.455Z,28.87
2022-09-17T19:05:54.370Z,28.86
2022-09-17T19:08:44.948Z,28.87
2022-09-17T19:11:37.766Z,28.90
2022-09-17T19:14:27.849Z,28.93
2022-09-17T19:17:19.051Z,28.81
2022-09-17T19:20:09.212Z,28.83
2022-09-17T19:22:59.250Z,28.77
2022-09-17T19:25:49.120Z,28.74
2022-09-17T19:28:39.096Z,28.74
2022-09-17T19:31:32.939Z,28.76
2022-09-17T19:34:22.927Z,28.72
2022-09-17T19:37:12.986Z,28.72
2022-09-17T19:40:03.006Z,28.78
2022-09-17T19:42:56.803Z,28.78
2022-09-17T19:45:49.879Z,28.71
2022-09-17T19:48:44.875Z,28.72
2022-09-17T19:51:35.379Z,28.68
2022-09-17T19:54:26.112Z,28.74
2022-09-17T19:57:17.706Z,28.68
2022-09-17T20:00:09.740Z,28.66
2022-09-17T20:03:06.903Z,28.71
2022-09-17T20:06:04.622Z,28.62
2022-09-17T20:08:56.797Z,28.65
2022-09-17T20:11:46.918Z,28.66
2022-09-17T20:14:37.113Z,28.66
2022-09-17T20:17:27.840Z,28.65
2022-09-17T20:20:18.598Z,28.65
2022-09-17T20:23:08.867Z,28.64
2022-09-17T20:25:59.410Z,28.64
2022-09-17T20:28:50.895Z,28.63
2022-09-17T20:31:41.231Z,28.64
2022-09-17T20:34:31.299Z,28.59
2022-09-17T20:37:55.406Z,28.57
2022-09-17T20:40:32.983Z,28.60
2022-09-17T20:43:23.040Z,28.57
2022-09-17T20:46:15.235Z,28.59
2022-09-17T20:49:06.794Z,28.56
2022-09-17T20:51:57.197Z,28.57
2022-09-17T20:54:49.077Z,28.60
2022-09-17T20:57:39.054Z,28.60
2022-09-17T21:00:30.788Z,28.57
2022-09-17T21:03:23.475Z,28.58
2022-09-17T21:06:24.294Z,28.57
2022-09-17T21:09:18.056Z,28.54
2022-09-17T21:12:08.421Z,28.57
2022-09-17T21:14:58.725Z,28.58
2022-09-17T21:17:49.652Z,28.56
2022-09-17T21:20:40.187Z,28.52
2022-09-17T21:23:31.803Z,28.44
2022-09-17T21:26:26.334Z,28.53
2022-09-17T21:29:16.492Z,28.45
2022-09-17T21:32:07.164Z,28.47
2022-09-17T21:34:57.492Z,28.54
2022-09-17T21:37:47.859Z,28.51
2022-09-17T21:40:38.012Z,28.43
2022-09-17T21:43:29.872Z,28.46
2022-09-17T21:46:23.633Z,28.51
2022-09-17T21:49:14.813Z,28.47
2022-09-17T21:52:05.383Z,28.49
2022-09-17T21:54:55.381Z,28.49
2022-09-17T21:57:45.819Z,28.44
2022-09-17T22:00:36.360Z,28.43
2022-09-17T22:03:26.259Z,28.37
2022-09-17T22:06:21.063Z,28.37
2022-09-17T22:09:22.443Z,28.45
2022-09-17T22:12:12.811Z,28.51
2022-09-17T22:15:02.971Z,28.50
2022-09-17T22:17:52.990Z,28.43
2022-09-17T22:20:43.312Z,28.44
2022-09-17T22:23:34.947Z,28.44
2022-09-17T22:26:26.686Z,28.40
2022-09-17T22:29:27.280Z,28.49
2022-09-17T22:32:17.325Z,28.42
2022-09-17T22:35:09.421Z,28.45
2022-09-17T22:37:59.720Z,28.52
2022-09-17T22:40:49.240Z,28.52
2022-09-17T22:43:38.958Z,28.53
2022-09-17T22:46:31.893Z,28.51
2022-09-17T22:49:22.581Z,28.52
2022-09-17T22:52:13.011Z,28.47
2022-09-17T22:55:02.876Z,28.48
2022-09-17T22:57:53.435Z,28.49
2022-09-17T23:00:43.635Z,28.48
2022-09-17T23:03:33.475Z,28.55
2022-09-17T23:06:27.003Z,28.47
2022-09-17T23:09:21.031Z,28.51
2022-09-17T23:12:11.166Z,28.53
2022-09-17T23:15:01.474Z,28.55
2022-09-17T23:17:51.787Z,28.57
2022-09-17T23:20:42.131Z,28.57
2022-09-17T23:23:32.801Z,28.57
2022-09-17T23:26:25.180Z,28.65
2022-09-17T23:29:15.055Z,28.76
2022-09-17T23:32:05.525Z,28.73
2022-09-17T23:34:55.574Z,28.79
2022-09-17T23:37:45.467Z,28.79
2022-09-17T23:40:36.416Z,28.84
2022-09-17T23:43:26.473Z,28.81
2022-09-17T23:46:17.675Z,28.91
2022-09-17T23:49:08.552Z,28.94
2022-09-17T23:51:59.347Z,28.99
2022-09-17T23:54:55.249Z,29.05
2022-09-17T23:57:47.830Z,29.11
